Time;durP1;ratioP1;P1;durP2;ratioP2;P2;SDS_P1;SDS_P2;PMS_P1;PMS_P2;Temp;Humidity;BMP_temperature;BMP_pressure;BME280_temperature;BME280_humidity;BME280_pressure;Samples;Min_cycle;Max_cycle;Signal;HPM_P1;HPM_P2
2022/01/03 00:01:17;;;;;;;;;0.00;0.00;;;;;11.58;71.64;101085.44;5035998;28;45386;-78
2022/01/03 00:03:42;;;;;;;;;3.00;1.00;;;;;11.56;71.59;101083.69;5035155;28;45570;-77
2022/01/03 00:06:08;;;;;;;;;0.25;0.25;;;;;11.54;71.81;101088.16;5036647;28;45413;-78
2022/01/03 00:08:33;;;;;;;;;2.50;1.00;;;;;11.55;71.53;101092.56;5034772;28;45470;-78
2022/01/03 00:10:59;;;;;;;;;0.25;0.00;;;;;11.54;71.84;101090.78;5036364;28;45471;-79
2022/01/03 00:13:25;;;;;;;;;0.00;0.00;;;;;11.53;71.36;101093.47;5037225;28;45448;-77
2022/01/03 00:15:52;;;;;;;;;2.00;0.00;;;;;11.50;71.57;101097.03;5035791;28;45330;-78
2022/01/03 00:18:18;;;;;;;;;2.50;1.00;;;;;11.47;71.69;101083.84;5034810;28;45531;-77
2022/01/03 00:20:58;;;;;;;;;0.75;0.75;;;;;11.47;71.98;101086.47;5033624;28;45467;-78
2022/01/03 00:23:27;;;;;;;;;0.50;0.00;;;;;11.49;71.78;101103.25;5036459;28;45409;-78
2022/01/03 00:25:58;;;;;;;;;2.00;0.00;;;;;11.49;72.07;101097.94;5035382;28;47220;-77
2022/01/03 00:28:31;;;;;;;;;3.25;0.25;;;;;11.48;71.63;101101.47;5027181;28;45519;-78
2022/01/03 00:30:57;;;;;;;;;6.00;0.00;;;;;11.46;71.83;101112.97;5032992;28;45310;-78
2022/01/03 00:33:26;;;;;;;;;4.25;0.25;;;;;11.44;72.00;101114.78;5036362;28;45521;-78
2022/01/03 00:35:55;;;;;;;;;0.50;0.00;;;;;11.41;71.96;101105.09;5036504;28;45455;-78
2022/01/03 00:38:22;;;;;;;;;2.00;0.00;;;;;11.38;72.23;101107.81;5036820;28;45450;-79
2022/01/03 00:40:48;;;;;;;;;0.25;0.00;;;;;11.40;72.40;101121.88;5036879;28;45414;-79
2022/01/03 00:43:16;;;;;;;;;0.75;0.75;;;;;11.39;72.07;101117.50;5044714;28;45354;-79
2022/01/03 00:45:41;;;;;;;;;0.75;0.75;;;;;11.33;72.47;101099.94;5031604;28;46142;-78
2022/01/03 00:48:08;;;;;;;;;1.75;0.50;;;;;11.35;72.60;101118.44;5037314;28;45509;-78
2022/01/03 00:50:34;;;;;;;;;6.25;1.00;;;;;11.31;72.36;101124.66;5035245;28;45378;-78
2022/01/03 00:52:59;;;;;;;;;3.25;1.25;;;;;11.31;72.29;101114.97;5036008;28;45608;-80
2022/01/03 00:55:24;;;;;;;;;1.00;0.00;;;;;11.31;72.92;101114.06;5035487;28;45425;-80
2022/01/03 00:58:16;;;;;;;;;0.00;0.00;;;;;11.31;72.53;101125.56;5028063;28;45611;-77
2022/01/03 01:00:45;;;;;;;;;3.00;1.00;;;;;11.29;72.62;101116.75;5032406;28;45331;-78
2022/01/03 01:03:19;;;;;;;;;0.75;0.00;;;;;11.26;72.39;101122.06;5036425;28;45379;-79
2022/01/03 01:05:47;;;;;;;;;0.00;0.00;;;;;11.28;72.31;101114.13;5035442;28;45951;-78
2022/01/03 01:08:17;;;;;;;;;2.25;0.00;;;;;11.27;73.17;101120.31;5025759;28;45500;-78
2022/01/03 01:10:44;;;;;;;;;1.00;0.00;;;;;11.30;72.86;101128.22;5015619;28;45444;-79
2022/01/03 01:13:13;;;;;;;;;0.00;0.00;;;;;11.26;72.88;101123.88;5019844;28;45383;-78
2022/01/03 01:15:40;;;;;;;;;2.50;0.25;;;;;11.28;72.79;101130.00;5017051;28;45355;-78
2022/01/03 01:18:05;;;;;;;;;0.00;0.00;;;;;11.27;72.77;101122.97;5025457;28;45378;-78
2022/01/03 01:20:33;;;;;;;;;1.00;0.25;;;;;11.26;73.06;101129.16;5034629;28;45436;-79
2022/01/03 01:22:59;;;;;;;;;0.25;0.00;;;;;11.28;73.11;101124.69;5031844;28;45359;-78
2022/01/03 01:28:03;;;;;;;;;3.00;0.00;;;;;11.25;72.71;101115.06;5028587;28;45402;-78
2022/01/03 01:30:29;;;;;;;;;0.00;0.00;;;;;11.33;72.83;101128.19;5033839;28;45394;-79
2022/01/03 01:33:04;;;;;;;;;0.00;0.00;;;;;11.32;72.78;101121.13;5022942;28;45548;-78
2022/01/03 01:35:39;;;;;;;;;1.00;0.00;;;;;11.34;72.88;101120.22;5015230;28;45558;-79
2022/01/03 01:38:06;;;;;;;;;0.00;0.00;;;;;11.34;72.89;101119.31;5020169;28;45470;-78
2022/01/03 01:40:32;;;;;;;;;3.25;0.00;;;;;11.29;73.07;101106.16;5027459;28;45511;-78
2022/01/03 01:43:01;;;;;;;;;2.00;0.00;;;;;11.32;73.19;101110.53;5033342;28;45454;-78
2022/01/03 01:45:27;;;;;;;;;0.50;0.00;;;;;11.30;72.79;101104.41;5036327;28;45418;-78
2022/01/03 01:47:58;;;;;;;;;1.50;0.00;;;;;11.31;73.09;101119.38;5034911;28;45403;-78
2022/01/03 01:50:28;;;;;;;;;4.00;0.00;;;;;11.30;72.93;101113.22;5027061;28;45550;-79
2022/01/03 01:52:56;;;;;;;;;0.25;0.00;;;;;11.28;73.09;101108.81;5015099;28;45482;-78
2022/01/03 01:55:22;;;;;;;;;0.00;0.00;;;;;11.28;73.28;101104.44;5012779;28;48077;-78
2022/01/03 01:57:57;;;;;;;;;0.50;0.00;;;;;11.26;73.42;101097.41;5021945;28;45522;-78
2022/01/03 02:00:26;;;;;;;;;1.00;0.00;;;;;11.25;73.64;101100.94;5033720;28;45413;-77
2022/01/03 02:03:11;;;;;;;;;1.50;0.00;;;;;11.23;73.45;101095.66;5034803;28;45525;-78
2022/01/03 02:05:41;;;;;;;;;2.75;0.00;;;;;11.17;73.32;101086.06;5034953;28;45456;-78
2022/01/03 02:08:28;;;;;;;;;1.00;0.00;;;;;11.18;73.44;101094.88;5036923;28;45509;-79
2022/01/03 02:11:18;;;;;;;;;1.00;0.00;;;;;11.16;73.44;101097.53;5040949;28;45374;-78
2022/01/03 02:13:44;;;;;;;;;4.25;0.75;;;;;11.13;73.88;101102.88;5021018;28;45338;-78
2022/01/03 02:16:10;;;;;;;;;2.50;1.00;;;;;11.11;73.84;101102.00;5038409;28;46297;-78
2022/01/03 02:18:35;;;;;;;;;3.50;0.75;;;;;11.10;73.95;101110.84;5024528;28;45323;-79
2022/01/03 02:21:02;;;;;;;;;4.75;1.00;;;;;11.10;73.83;101115.25;5035615;28;45383;-78
2022/01/03 02:23:27;;;;;;;;;1.75;0.00;;;;;11.02;74.01;101100.38;5036170;28;45497;-78
2022/01/03 02:25:52;;;;;;;;;1.00;0.00;;;;;11.04;74.19;101100.34;5034774;28;46165;-78
2022/01/03 02:28:22;;;;;;;;;2.00;0.25;;;;;10.95;74.16;101090.75;5036999;28;45381;-78
2022/01/03 02:30:48;;;;;;;;;4.00;1.00;;;;;10.96;74.44;101103.09;5033332;28;45333;-79
2022/01/03 02:33:13;;;;;;;;;1.00;0.00;;;;;10.97;74.31;101109.25;5017740;28;45404;-77
2022/01/03 02:35:41;;;;;;;;;4.50;0.00;;;;;10.98;74.45;101118.94;5024324;28;45461;-78
2022/01/03 02:38:08;;;;;;;;;1.00;1.00;;;;;10.96;74.64;101126.00;5037776;28;45569;-79
2022/01/03 02:40:34;;;;;;;;;0.00;0.00;;;;;10.90;74.75;101115.50;5037278;28;45458;-79
2022/01/03 02:42:59;;;;;;;;;1.75;0.75;;;;;10.91;74.95;101126.06;5038182;28;45547;-79
2022/01/03 02:45:26;;;;;;;;;0.25;0.00;;;;;10.92;75.21;101125.19;5032292;28;45455;-79
2022/01/03 02:47:55;;;;;;;;;0.00;0.00;;;;;10.90;74.98;101120.81;5042268;28;45483;-79
2022/01/03 02:50:22;;;;;;;;;0.00;0.00;;;;;10.88;75.22;101104.09;5040005;28;45385;-78
2022/01/03 02:52:48;;;;;;;;;0.50;0.00;;;;;10.87;75.61;101100.59;5037402;28;45377;-78
2022/01/03 02:55:15;;;;;;;;;2.75;0.00;;;;;10.87;75.17;101120.84;5034868;28;45497;-78
2022/01/03 02:57:46;;;;;;;;;0.50;0.50;;;;;10.86;75.62;101122.63;5019212;28;45398;-78
2022/01/03 03:00:17;;;;;;;;;2.00;1.75;;;;;10.86;75.42;101114.69;5027421;28;45450;-78
2022/01/03 03:02:43;;;;;;;;;1.00;0.00;;;;;10.86;75.35;101111.19;5038009;28;45343;-79
2022/01/03 03:05:10;;;;;;;;;0.25;0.25;;;;;10.86;75.46;101105.91;5037233;28;46583;-79
2022/01/03 03:07:36;;;;;;;;;0.50;0.50;;;;;10.86;75.43;101119.13;5037764;28;45470;-78
2022/01/03 03:10:12;;;;;;;;;4.00;0.00;;;;;10.82;75.85;101095.31;5038049;28;45595;-79
2022/01/03 03:12:38;;;;;;;;;1.00;1.00;;;;;10.84;75.44;101093.56;5030755;28;45512;-78
2022/01/03 03:15:06;;;;;;;;;0.00;0.00;;;;;10.83;75.32;101094.44;5028714;28;45632;-78
2022/01/03 03:17:33;;;;;;;;;0.00;0.00;;;;;10.83;75.63;101086.50;5027988;28;45315;-78
2022/01/03 03:19:59;;;;;;;;;3.00;0.75;;;;;10.84;75.81;101088.25;5038324;28;45541;-78
2022/01/03 03:22:29;;;;;;;;;1.00;0.00;;;;;10.83;75.58;101081.22;5037321;28;45360;-77
2022/01/03 03:25:11;;;;;;;;;1.00;0.75;;;;;10.84;75.38;101090.00;5037305;28;46345;-77
2022/01/03 03:27:43;;;;;;;;;0.50;0.00;;;;;10.84;75.37;101084.72;5036011;28;45398;-78
2022/01/03 03:30:13;;;;;;;;;0.00;0.00;;;;;10.84;75.40;101082.97;5037071;28;45611;-78
2022/01/03 03:32:39;;;;;;;;;3.75;0.00;;;;;10.87;75.50;101086.47;5037776;28;45556;-78
2022/01/03 03:35:05;;;;;;;;;2.00;0.00;;;;;10.84;75.46;101082.97;5028232;28;46377;-78
2022/01/03 03:37:30;;;;;;;;;3.00;0.00;;;;;10.83;75.63;101091.78;5035946;28;45410;-77
2022/01/03 03:39:55;;;;;;;;;0.00;0.00;;;;;10.83;75.61;101081.22;5037072;28;45412;-78
2022/01/03 03:42:20;;;;;;;;;0.00;0.00;;;;;10.83;75.54;101089.16;5036847;28;45409;-78
2022/01/03 03:44:46;;;;;;;;;4.00;0.00;;;;;10.87;75.48;101089.09;5032194;28;45465;-78
2022/01/03 03:47:12;;;;;;;;;2.00;0.00;;;;;10.84;75.36;101077.69;5037122;28;45446;-79
2022/01/03 03:49:38;;;;;;;;;1.00;0.50;;;;;10.85;75.73;101083.84;5022639;28;45370;-79
2022/01/03 03:52:04;;;;;;;;;0.00;0.00;;;;;10.87;75.68;101071.50;5017767;28;45664;-76
2022/01/03 03:54:32;;;;;;;;;3.50;0.00;;;;;10.85;75.85;101067.97;5023967;28;45413;-78
2022/01/03 03:56:58;;;;;;;;;1.00;0.00;;;;;10.84;75.88;101063.56;5035519;28;45526;-78
2022/01/03 03:59:25;;;;;;;;;1.00;0.00;;;;;10.88;75.77;101067.06;5036780;28;45371;-78
2022/01/03 04:01:51;;;;;;;;;2.50;0.50;;;;;10.87;76.00;101058.28;5016870;28;45526;-78
2022/01/03 04:04:17;;;;;;;;;1.00;1.00;;;;;10.83;76.04;101060.06;5016334;28;46317;-78
2022/01/03 04:06:42;;;;;;;;;0.50;0.00;;;;;10.87;75.80;101060.03;5026689;28;45535;-78
2022/01/03 04:09:07;;;;;;;;;1.00;1.00;;;;;10.87;75.90;101049.44;5035426;28;45326;-77
2022/01/03 04:11:33;;;;;;;;;0.00;0.00;;;;;10.87;76.14;101044.16;5036361;28;45526;-78
2022/01/03 04:13:58;;;;;;;;;2.00;0.00;;;;;10.86;75.85;101048.56;5035026;28;45907;-77
2022/01/03 04:16:24;;;;;;;;;0.75;0.00;;;;;10.83;75.84;101033.63;5025035;28;45485;-77
2022/01/03 04:18:49;;;;;;;;;0.00;0.00;;;;;10.83;75.87;101032.75;5038068;28;45389;-79
2022/01/03 04:21:14;;;;;;;;;1.25;0.00;;;;;10.83;75.98;101033.63;5038581;28;45570;-78
2022/01/03 04:23:40;;;;;;;;;0.50;0.50;;;;;10.84;76.01;101040.66;5037283;28;45419;-79
2022/01/03 04:26:05;;;;;;;;;4.50;1.00;;;;;10.83;75.79;101033.63;5035956;28;45385;-78
2022/01/03 04:28:31;;;;;;;;;3.00;0.00;;;;;10.83;76.02;101033.63;5026829;28;45438;-80
2022/01/03 04:30:57;;;;;;;;;3.50;1.50;;;;;10.86;75.69;101037.13;5033461;28;45541;-79
2022/01/03 04:33:22;;;;;;;;;0.00;0.00;;;;;10.87;75.64;101038.88;5034564;28;47197;-78
2022/01/03 04:35:48;;;;;;;;;1.75;0.00;;;;;10.86;75.77;101037.13;5020213;28;45516;-78
2022/01/03 04:38:14;;;;;;;;;3.25;3.25;;;;;10.86;75.76;101032.72;5016936;28;45513;-78
2022/01/03 04:40:40;;;;;;;;;3.00;2.00;;;;;10.83;75.73;101023.03;5027857;28;45382;-79
2022/01/03 04:43:06;;;;;;;;;0.00;0.00;;;;;10.83;75.88;101017.75;5036481;28;45473;-79
2022/01/03 04:45:31;;;;;;;;;0.50;0.50;;;;;10.84;75.64;101014.22;5023517;28;45448;-79
2022/01/03 04:47:57;;;;;;;;;0.00;0.00;;;;;10.83;75.62;101012.47;5025328;28;45327;-79
2022/01/03 04:50:22;;;;;;;;;1.00;0.00;;;;;10.86;75.52;101008.06;5034134;28;45307;-78
2022/01/03 04:52:48;;;;;;;;;1.25;0.00;;;;;10.87;75.22;101012.41;5020260;28;46132;-77
2022/01/03 04:55:13;;;;;;;;;1.50;1.00;;;;;10.88;75.59;101025.63;5015381;28;45539;-78
2022/01/03 04:57:39;;;;;;;;;2.00;0.50;;;;;10.86;75.69;101026.56;5022778;28;45251;-78
2022/01/03 05:00:06;;;;;;;;;4.75;1.00;;;;;10.86;75.56;101018.63;5026454;28;45300;-79
2022/01/03 05:02:31;;;;;;;;;0.00;0.00;;;;;10.84;75.54;101008.94;5035304;28;46366;-78
2022/01/03 05:04:57;;;;;;;;;0.50;0.50;;;;;10.84;75.55;101011.56;5033344;28;45439;-79
2022/01/03 05:07:22;;;;;;;;;0.00;0.00;;;;;10.80;75.77;101007.22;5035030;28;45396;-78
2022/01/03 05:09:47;;;;;;;;;0.00;0.00;;;;;10.80;75.73;101007.22;5026723;28;45355;-78
2022/01/03 05:12:13;;;;;;;;;1.25;0.00;;;;;10.79;75.64;100994.88;5035055;28;45482;-78
2022/01/03 05:14:40;;;;;;;;;2.50;0.00;;;;;10.83;75.66;100996.59;5035283;28;45398;-80
2022/01/03 05:17:05;;;;;;;;;1.75;1.00;;;;;10.82;76.00;101004.56;5036043;28;45391;-79
2022/01/03 05:19:30;;;;;;;;;1.50;0.75;;;;;10.77;75.97;100999.34;5020180;28;45304;-78
2022/01/03 05:21:56;;;;;;;;;0.25;0.00;;;;;10.78;75.76;100995.81;5016568;28;48300;-79
2022/01/03 05:24:21;;;;;;;;;3.00;0.00;;;;;10.82;75.97;101008.06;5019716;28;45413;-79
2022/01/03 05:26:46;;;;;;;;;1.50;0.00;;;;;10.81;76.04;100997.50;5015861;28;45429;-79
2022/01/03 05:29:12;;;;;;;;;1.00;0.00;;;;;10.76;76.40;101002.84;5017095;28;45465;-80
2022/01/03 05:31:37;;;;;;;;;1.50;0.00;;;;;10.77;76.23;100994.03;5021229;28;45495;-79
2022/01/03 05:34:03;;;;;;;;;1.00;0.00;;;;;10.77;76.27;100995.81;5033032;28;45421;-79
2022/01/03 05:36:28;;;;;;;;;1.00;0.00;;;;;10.78;76.21;101016.06;5015328;28;45303;-79
2022/01/03 05:38:54;;;;;;;;;1.00;0.00;;;;;10.77;76.35;101007.25;5022971;28;45362;-79
2022/01/03 05:41:19;;;;;;;;;0.50;0.50;;;;;10.78;76.33;100998.44;5033662;28;46646;-79
2022/01/03 05:43:45;;;;;;;;;1.00;0.50;;;;;10.77;76.56;101007.25;5034838;28;45346;-77
2022/01/03 05:46:11;;;;;;;;;4.75;1.00;;;;;10.80;76.27;101007.22;5034917;28;45525;-78
2022/01/03 05:48:37;;;;;;;;;1.75;1.75;;;;;10.75;76.32;100998.50;5034271;28;45570;-79
2022/01/03 05:51:02;;;;;;;;;1.50;0.00;;;;;10.78;76.58;100997.56;5023195;28;46473;-78
2022/01/03 05:53:30;;;;;;;;;1.00;1.00;;;;;10.80;76.64;101001.06;5016918;28;45482;-78
2022/01/03 05:55:56;;;;;;;;;1.00;1.00;;;;;10.75;76.51;100993.19;5033432;28;45554;-78
2022/01/03 05:58:21;;;;;;;;;2.00;0.00;;;;;10.79;76.59;101002.81;5038307;28;45466;-78
2022/01/03 06:00:47;;;;;;;;;0.75;0.75;;;;;10.78;76.49;101003.72;5027556;28;45949;-78
2022/01/03 06:03:14;;;;;;;;;2.50;1.25;;;;;10.80;76.67;101004.56;5032253;28;45715;-78
2022/01/03 06:05:52;;;;;;;;;0.00;0.00;;;;;10.72;76.60;100998.53;5015925;28;45398;-78
2022/01/03 06:08:18;;;;;;;;;2.25;0.25;;;;;10.75;76.72;101009.06;5033372;28;45438;-79
2022/01/03 06:10:43;;;;;;;;;0.00;0.00;;;;;10.77;76.31;101007.25;5033159;28;45621;-78
2022/01/03 06:13:09;;;;;;;;;0.00;0.00;;;;;10.79;76.36;101012.53;5048062;28;45450;-80
2022/01/03 06:15:37;;;;;;;;;5.00;3.00;;;;;10.79;76.26;101005.47;5034846;28;45726;-79
2022/01/03 06:18:03;;;;;;;;;0.00;0.00;;;;;10.79;76.42;101009.88;5036308;28;45563;-77
2022/01/03 06:20:29;;;;;;;;;1.75;0.50;;;;;10.76;76.62;100994.94;5037508;28;45513;-79
2022/01/03 06:22:55;;;;;;;;;2.25;2.25;;;;;10.79;76.50;101000.16;5032755;28;45360;-77
2022/01/03 06:25:20;;;;;;;;;3.50;2.00;;;;;10.73;76.52;100989.69;5021113;28;45310;-79
2022/01/03 06:27:45;;;;;;;;;7.00;1.00;;;;;10.77;76.39;101001.97;5038355;28;45324;-78
2022/01/03 06:30:12;;;;;;;;;3.25;1.00;;;;;10.80;76.48;101001.94;5037680;28;45494;-80
2022/01/03 06:32:38;;;;;;;;;2.00;0.75;;;;;10.78;76.19;100993.16;5036872;28;45476;-78
2022/01/03 06:35:04;;;;;;;;;1.75;1.00;;;;;10.78;76.25;100990.50;5036492;28;45417;-78
2022/01/03 06:37:30;;;;;;;;;2.50;0.75;;;;;10.80;76.26;100996.66;5052721;28;45364;-78
2022/01/03 06:39:55;;;;;;;;;1.00;0.00;;;;;10.82;76.48;100993.97;5028236;28;46376;-78
2022/01/03 06:42:21;;;;;;;;;0.00;0.00;;;;;10.80;76.19;100988.72;5020880;28;45315;-79
2022/01/03 06:44:48;;;;;;;;;2.00;0.00;;;;;10.78;76.60;100985.22;5035563;28;45421;-79
2022/01/03 06:47:14;;;;;;;;;3.75;0.50;;;;;10.78;76.60;100981.69;5035739;28;45491;-78
2022/01/03 06:49:39;;;;;;;;;5.50;0.75;;;;;10.78;76.68;100969.38;5033643;28;45370;-80
2022/01/03 06:52:05;;;;;;;;;3.75;1.00;;;;;10.79;76.18;100973.72;5036963;28;45370;-79
2022/01/03 06:54:33;;;;;;;;;1.00;1.00;;;;;10.77;76.50;100975.53;5038927;28;45432;-79
2022/01/03 06:56:58;;;;;;;;;0.50;0.00;;;;;10.78;76.38;100973.75;5039694;28;45401;-78
2022/01/03 06:59:24;;;;;;;;;1.00;1.00;;;;;10.76;76.50;100968.50;5034507;28;46092;-76
2022/01/03 07:01:51;;;;;;;;;3.50;3.50;;;;;10.80;76.52;100986.06;5035934;28;45429;-78
2022/01/03 07:04:16;;;;;;;;;1.25;0.00;;;;;10.77;76.61;100983.47;5034274;28;45333;-78
2022/01/03 07:06:42;;;;;;;;;4.00;2.00;;;;;10.80;76.83;100980.78;5024691;28;45516;-78
2022/01/03 07:09:07;;;;;;;;;4.00;1.00;;;;;10.70;76.69;100958.00;5017967;28;46093;-77
2022/01/03 07:11:33;;;;;;;;;2.00;0.75;;;;;10.76;77.00;100952.63;5017401;28;45380;-78
2022/01/03 07:19:55;;;;;;;;;1.00;1.00;;;;;10.79;77.02;100957.88;5036991;28;45915;-79
2022/01/03 07:22:21;;;;;;;;;0.00;0.00;;;;;10.77;76.84;100953.53;5032833;28;45512;-79
2022/01/03 07:24:47;;;;;;;;;3.00;1.00;;;;;10.75;77.03;100950.91;5035597;28;45522;-79
2022/01/03 07:27:13;;;;;;;;;4.00;2.00;;;;;10.77;76.94;100964.97;5056332;28;45461;-78
2022/01/03 07:29:40;;;;;;;;;0.75;0.75;;;;;10.80;76.90;100961.41;5050101;28;45295;-79
2022/01/03 07:32:06;;;;;;;;;4.50;0.00;;;;;10.77;77.07;100953.53;5043032;28;45232;-78
2022/01/03 07:34:32;;;;;;;;;1.00;1.00;;;;;10.76;76.72;100960.56;5028518;28;45419;-79
2022/01/03 07:36:58;;;;;;;;;1.50;1.25;;;;;10.78;77.00;100952.59;5028760;28;45561;-78
2022/01/03 07:39:24;;;;;;;;;2.50;1.00;;;;;10.77;76.76;100949.09;5032230;28;45502;-78
2022/01/03 07:41:49;;;;;;;;;1.00;0.75;;;;;10.75;77.09;100945.63;5033926;28;45453;-77
2022/01/03 07:44:14;;;;;;;;;0.00;0.00;;;;;10.79;77.11;100946.44;5042710;28;45474;-76
2022/01/03 07:46:40;;;;;;;;;4.50;0.50;;;;;10.78;76.95;100945.56;5038439;28;45381;-75
2022/01/03 07:49:05;;;;;;;;;2.75;1.00;;;;;10.74;77.18;100940.34;5029502;28;45445;-79
2022/01/03 07:51:31;;;;;;;;;0.00;0.00;;;;;10.77;77.13;100946.44;5027802;28;45444;-79
2022/01/03 07:53:57;;;;;;;;;4.00;1.50;;;;;10.77;77.29;100933.22;5037176;28;45375;-76
2022/01/03 07:56:22;;;;;;;;;0.00;0.00;;;;;10.77;77.12;100932.38;5038837;28;45733;-79
2022/01/03 07:58:48;;;;;;;;;0.50;0.50;;;;;10.74;77.36;100943.84;5036869;28;46078;-78
2022/01/03 08:01:14;;;;;;;;;2.00;0.75;;;;;10.74;77.37;100941.22;5024232;28;45651;-79
2022/01/03 08:03:39;;;;;;;;;3.00;0.25;;;;;10.74;77.52;100938.56;5035282;28;45539;-78
2022/01/03 08:06:08;;;;;;;;;0.00;0.00;;;;;10.74;77.48;100938.56;5021659;28;45331;-79
2022/01/03 08:08:33;;;;;;;;;0.50;0.00;;;;;10.75;77.75;100934.13;5028708;28;45569;-76
2022/01/03 08:10:59;;;;;;;;;3.00;2.25;;;;;10.69;77.51;100913.97;5027491;28;45508;-76
2022/01/03 08:13:25;;;;;;;;;6.75;0.25;;;;;10.69;77.82;100921.00;5016066;28;45359;-77
2022/01/03 08:15:50;;;;;;;;;1.00;0.00;;;;;10.75;77.86;100927.09;5027266;28;45524;-77
2022/01/03 08:18:15;;;;;;;;;4.00;0.00;;;;;10.72;77.97;100927.16;5041983;28;46202;-76
2022/01/03 08:20:41;;;;;;;;;6.00;0.75;;;;;10.69;78.13;100923.66;5017244;28;45505;-77
2022/01/03 08:23:06;;;;;;;;;2.25;0.75;;;;;10.73;78.15;100931.53;5018972;28;45497;-76
2022/01/03 08:25:37;;;;;;;;;1.00;0.75;;;;;10.71;78.09;100914.81;5022216;28;45532;-75
2022/01/03 08:28:06;;;;;;;;;5.50;0.00;;;;;10.77;78.55;100919.16;5021081;28;47097;-78
2022/01/03 08:30:32;;;;;;;;;0.25;0.25;;;;;10.78;78.42;100918.22;5028272;28;45447;-74
2022/01/03 08:32:57;;;;;;;;;1.50;0.25;;;;;10.80;78.10;100916.47;5036191;28;45503;-78
2022/01/03 08:35:24;;;;;;;;;0.25;0.25;;;;;10.79;78.26;100920.84;5022610;28;45409;-79
2022/01/03 08:37:50;;;;;;;;;0.00;0.00;;;;;10.81;78.29;100918.19;5017699;28;45915;-78
2022/01/03 08:40:16;;;;;;;;;1.00;0.00;;;;;10.79;78.63;100912.91;5027076;28;45562;-77
2022/01/03 08:42:42;;;;;;;;;3.00;0.50;;;;;10.80;78.69;100905.88;5028686;28;45446;-77
2022/01/03 08:45:08;;;;;;;;;1.00;1.00;;;;;10.82;78.39;100912.88;5031214;28;45541;-78
2022/01/03 08:47:33;;;;;;;;;1.00;0.75;;;;;10.87;78.72;100922.50;5034697;28;46586;-78
2022/01/03 08:49:59;;;;;;;;;4.25;1.25;;;;;10.86;78.67;100912.84;5033070;28;45589;-79
2022/01/03 08:52:24;;;;;;;;;1.00;0.00;;;;;10.84;78.61;100908.44;5050443;28;45859;-78
2022/01/03 08:54:50;;;;;;;;;3.75;1.00;;;;;10.92;78.38;100910.09;5028869;28;45550;-78
2022/01/03 08:57:15;;;;;;;;;0.00;0.00;;;;;10.92;78.40;100896.88;5026032;28;45520;-78
2022/01/03 08:59:41;;;;;;;;;1.00;0.00;;;;;10.94;78.40;100901.22;5023183;28;45480;-76
2022/01/03 09:02:07;;;;;;;;;1.00;0.00;;;;;10.96;78.73;100907.38;5029760;28;45327;-77
2022/01/03 09:04:32;;;;;;;;;0.00;0.00;;;;;10.95;78.67;100910.91;5018661;28;46546;-77
2022/01/03 09:06:59;;;;;;;;;7.50;4.00;;;;;10.92;78.41;100899.53;5026957;28;45389;-78
2022/01/03 09:09:27;;;;;;;;;1.75;0.00;;;;;10.95;78.53;100899.47;5030435;28;45461;-79
2022/01/03 09:11:52;;;;;;;;;7.25;1.00;;;;;10.96;78.33;100887.97;5035000;28;45482;-77
2022/01/03 09:14:18;;;;;;;;;0.00;0.00;;;;;11.00;78.23;100898.47;5033348;28;45578;-79
2022/01/03 09:16:43;;;;;;;;;4.00;0.50;;;;;11.00;78.41;100898.47;5023189;28;47116;-79
2022/01/03 09:19:09;;;;;;;;;1.75;0.75;;;;;11.02;78.09;100901.09;5028153;28;45527;-76
2022/01/03 09:21:34;;;;;;;;;1.75;1.75;;;;;11.02;78.16;100894.06;5029946;28;45481;-76
2022/01/03 09:24:44;;;;;;;;;3.00;0.50;;;;;11.03;78.17;100900.22;5033695;28;45616;-76
2022/01/03 09:29:35;;;;;;;;;4.00;1.50;;;;;11.12;78.33;100908.00;5029857;28;45415;-75
2022/01/03 09:32:01;;;;;;;;;5.25;1.75;;;;;11.14;78.05;100906.19;5024048;28;45402;-76
2022/01/03 09:34:26;;;;;;;;;1.00;1.00;;;;;11.17;78.13;100895.56;5029154;28;45572;-76
2022/01/03 09:36:52;;;;;;;;;5.50;2.00;;;;;11.23;77.76;100905.16;5022611;28;45975;-78
2022/01/03 09:39:18;;;;;;;;;6.50;0.00;;;;;11.19;77.43;100888.47;5021586;28;45600;-76
2022/01/03 09:41:57;;;;;;;;;3.50;0.00;;;;;11.28;77.53;100889.19;5031317;28;45491;-78
2022/01/03 09:44:29;;;;;;;;;4.50;1.00;;;;;11.30;77.25;100882.13;5026914;28;45559;-78
2022/01/03 09:47:02;;;;;;;;;1.25;0.75;;;;;11.34;77.22;100891.72;5025374;28;46287;-78
2022/01/03 09:49:33;;;;;;;;;3.00;1.75;;;;;11.35;77.03;100888.19;5015519;28;45454;-79
2022/01/03 09:51:59;;;;;;;;;1.00;1.00;;;;;11.33;77.45;100892.66;5019462;28;45480;-79
2022/01/03 09:54:25;;;;;;;;;4.00;0.75;;;;;11.40;77.13;100899.56;5024540;28;45419;-76
2022/01/03 09:56:52;;;;;;;;;5.25;1.00;;;;;11.40;76.93;100896.03;5018939;28;45424;-78
2022/01/03 09:59:19;;;;;;;;;6.50;0.75;;;;;11.43;76.90;100901.28;5028535;28;45501;-78
2022/01/03 10:01:44;;;;;;;;;0.00;0.00;;;;;11.42;76.50;100900.41;5038899;28;45568;-78
2022/01/03 10:04:12;;;;;;;;;0.75;0.00;;;;;11.40;76.38;100881.03;5024302;28;45426;-78
2022/01/03 10:06:39;;;;;;;;;0.00;0.00;;;;;11.48;76.28;100889.72;5040099;28;45538;-79
2022/01/03 10:09:05;;;;;;;;;0.00;0.00;;;;;11.50;76.42;100887.91;5042480;28;44870;-78
2022/01/03 10:11:30;;;;;;;;;3.25;1.75;;;;;11.55;76.25;100890.47;5016144;28;45395;-77
2022/01/03 10:13:56;;;;;;;;;4.00;1.00;;;;;11.55;76.42;100885.16;5024527;28;45390;-79
2022/01/03 10:16:21;;;;;;;;;2.50;0.00;;;;;11.60;75.85;100877.13;5030295;28;46215;-80
2022/01/03 10:18:47;;;;;;;;;2.00;0.25;;;;;11.67;75.42;100894.66;5034141;28;45433;-79
2022/01/03 10:21:42;;;;;;;;;6.00;0.00;;;;;11.68;75.44;100883.16;5016532;28;45467;-78
2022/01/03 10:24:08;;;;;;;;;0.00;0.00;;;;;11.67;75.30;100884.94;5030787;28;45641;-77
2022/01/03 10:26:36;;;;;;;;;1.25;0.00;;;;;11.69;74.99;100876.94;5030241;28;45528;-78
2022/01/03 10:29:23;;;;;;;;;0.25;0.25;;;;;11.68;75.46;100869.94;5018853;28;45378;-78
2022/01/03 10:31:52;;;;;;;;;2.00;0.50;;;;;11.67;75.60;100870.81;5031227;28;45469;-78
2022/01/03 10:34:21;;;;;;;;;1.00;1.00;;;;;11.61;75.48;100849.75;5030026;28;45412;-79
2022/01/03 10:36:47;;;;;;;;;0.50;0.00;;;;;11.67;75.45;100847.00;5016524;28;45506;-78
2022/01/03 10:39:27;;;;;;;;;0.00;0.00;;;;;11.70;75.18;100858.38;5025840;28;45415;-77
2022/01/03 10:42:17;;;;;;;;;5.75;0.00;;;;;11.72;74.87;100853.94;5016594;28;45556;-78
2022/01/03 10:44:44;;;;;;;;;3.00;1.00;;;;;11.69;75.18;100839.88;5025409;28;45525;-78
2022/01/03 10:47:28;;;;;;;;;2.00;1.00;;;;;11.71;74.93;100832.81;5028780;28;47728;-75
2022/01/03 10:49:54;;;;;;;;;0.75;0.75;;;;;11.74;74.86;100827.44;5028530;28;45592;-76
2022/01/03 10:52:28;;;;;;;;;2.50;0.00;;;;;11.76;74.69;100822.97;5023546;28;45565;-76
2022/01/03 10:55:20;;;;;;;;;0.50;0.50;;;;;11.78;74.87;100823.84;5025381;28;45328;-75
2022/01/03 10:57:45;;;;;;;;;0.75;0.00;;;;;11.76;74.58;100820.31;5025422;28;46147;-75
2022/01/03 11:00:29;;;;;;;;;5.50;4.00;;;;;11.76;74.55;100816.81;5028797;28;45456;-76
2022/01/03 11:03:08;;;;;;;;;0.00;0.00;;;;;11.79;74.39;100817.63;5023577;28;45612;-78
2022/01/03 11:05:38;;;;;;;;;0.75;0.00;;;;;11.83;74.55;100821.94;5033354;28;45649;-77
2022/01/03 11:10:45;;;;;;;;;6.00;0.00;;;;;11.81;74.10;100775.22;5032093;28;45468;-76
2022/01/03 11:13:20;;;;;;;;;1.50;1.00;;;;;11.80;73.75;100777.00;5027940;28;45719;-77
2022/01/03 11:16:02;;;;;;;;;4.00;3.00;;;;;11.85;73.89;100784.84;5032312;28;45504;-77
2022/01/03 11:18:34;;;;;;;;;0.00;0.00;;;;;11.87;73.42;100786.56;5028347;28;45583;-77
2022/01/03 11:21:12;;;;;;;;;0.00;0.00;;;;;11.95;73.93;100789.06;5030061;28;45460;-77
2022/01/03 11:23:38;;;;;;;;;3.50;1.00;;;;;11.90;73.23;100765.31;5021611;28;45520;-78
2022/01/03 11:26:06;;;;;;;;;3.00;0.00;;;;;11.98;73.32;100761.63;5022225;28;45649;-77
2022/01/03 11:28:31;;;;;;;;;0.75;0.25;;;;;12.04;73.52;100766.78;5019796;28;46256;-77
2022/01/03 11:31:05;;;;;;;;;4.25;0.00;;;;;12.09;72.93;100770.22;5027045;28;45446;-83
2022/01/03 11:33:33;;;;;;;;;0.00;0.00;;;;;12.08;72.90;100753.41;5022115;28;45387;-84
2022/01/03 11:35:59;;;;;;;;;0.75;0.75;;;;;12.13;73.03;100750.69;5023341;28;45563;-77
2022/01/03 11:38:28;;;;;;;;;2.00;2.00;;;;;12.13;72.68;100750.69;5025468;28;47266;-78
2022/01/03 11:40:53;;;;;;;;;0.00;0.00;;;;;12.12;72.94;100748.94;5026683;28;45503;-78